ASN logo
ASN Wikibase Occurrence # 199972
Last updated: 20 October 2017
This information is added by users of ASN. Neither ASN nor the Flight Safety Foundation are responsible for the completeness or correctness of this information. If you feel this information is incomplete or incorrect, you can submit corrected information.

Date:24-SEP-2017
Time:23:45
Type:Silhouette image of generic B748 model; specific model in this crash may look slightly different
Boeing 747-87UF
Owner/operator:Atlas Air, opf Cathay Pacific
Registration: N856GT
C/n / msn: 37561/1442
Fatalities:Fatalities: 0 / Occupants:
Other fatalities:0
Airplane damage: None
Location:nr Hong Kong-Chek Lap Kok International Airport (HKG/VHHH) -   Hong Kong
Phase: Initial climb
Nature:Cargo
Departure airport:Hong Kong-Chek Lap Kok International Airport (HKG/VHHH)
Destination airport:Anchorage-Ted Stevens International Airport, AK (ANC/PANC)
Narrative:
Cathay Pacific flight CX86, operated by Atlas Air, overflew mountainous terrain below the Minimum Sector Altitude shortly after takeoff from Hong Kong-Chek Lap Kok International Airport.
The Boeing 747-87UF cargo plane took off from runway 07R at 23:43 LT (15:43 UTC). It was cleared for the OCEAN 2A Standard Instrument Departure (SID). This calls for a heading of 073 after takeoff, heading towards the PORPA waypoint. After PORPA the aircraft would have to turn right, after passing the mountainous area on Lantau Island.
However, the flight did not follow the SID and turned right soon after takeoff, overflying Lantau Island. The aircraft crossed a 1443 feet high mountain. ADS-B data of the flight show a recorded altitude of between 2050 and 2475 feet amsl as the aircraft overflew the mountain.
The Minimum Sector Altitude there was 3000 feet


Weather reported about the incident time (1543Z):
VHHH 241500Z 12012KT 090V170 9999 FEW020 SCT030 29/25 Q1009 NOSIG
VHHH 241600Z 11012KT 090V150 9999 FEW015 SCT028 30/25 Q1009 WS R07L NOSIG

Sources:

http://hk.on.cc/hk/bkn/cnt/news/20170926/bkn-20170926091951134-0926_00822_001.html
http://hk.apple.nextmedia.com/realtime/news/20170926/57255146
http://www.ais.gov.hk/HK_AIP/AIP/AD/HK_AD2-97%20OCEAN%20AC.pdf
Incident 4 June 2017: A320 premature departure turn towards terrain, below MSA at Hong Kong


Images:


Revision history:

Date/timeContributorUpdates
26-Sep-2017 18:17 harro Added
26-Sep-2017 18:40 harro Updated [Source]

Corrections or additions? ... Edit this accident description